createdAt,value
2023-05-14T00:00:39.840Z,27.92
2023-05-14T00:01:40.814Z,28.51
2023-05-14T00:02:39.933Z,29.20
2023-05-14T00:03:40.938Z,28.44
2023-05-14T00:04:39.972Z,29.34
2023-05-14T00:05:39.876Z,32.07
2023-05-14T00:06:39.873Z,28.93
2023-05-14T00:07:39.898Z,27.14
2023-05-14T00:08:39.892Z,28.33
2023-05-14T00:09:39.859Z,28.34
2023-05-14T00:10:39.911Z,27.77
2023-05-14T00:11:39.858Z,30.20
2023-05-14T00:12:39.886Z,31.00
2023-05-14T00:13:39.848Z,28.81
2023-05-14T00:14:39.867Z,29.07
2023-05-14T00:15:39.893Z,27.83
2023-05-14T00:16:40.914Z,31.34
2023-05-14T00:17:39.931Z,30.33
2023-05-14T00:18:39.985Z,33.03
2023-05-14T00:19:39.910Z,31.01
2023-05-14T00:20:40.924Z,27.74
2023-05-14T00:21:39.883Z,29.36
2023-05-14T00:22:39.911Z,31.70
2023-05-14T00:23:39.956Z,27.52
2023-05-14T00:24:39.916Z,27.29
2023-05-14T00:25:39.911Z,28.36
2023-05-14T00:26:39.945Z,29.98
2023-05-14T00:27:39.948Z,26.63
2023-05-14T00:28:39.962Z,30.77
2023-05-14T00:29:40.379Z,31.21
2023-05-14T00:30:39.943Z,28.89
2023-05-14T00:31:40.017Z,28.98
2023-05-14T00:32:40.010Z,28.99
2023-05-14T00:33:40.832Z,29.39
2023-05-14T00:34:40.050Z,30.87
2023-05-14T00:35:40.869Z,29.30
2023-05-14T00:36:40.041Z,30.19
2023-05-14T00:37:40.025Z,25.00
2023-05-14T00:38:40.060Z,29.32
2023-05-14T00:39:40.378Z,30.81
2023-05-14T00:40:40.038Z,26.65
2023-05-14T00:41:40.052Z,29.02
2023-05-14T00:42:40.063Z,28.57
2023-05-14T00:43:40.072Z,30.01
2023-05-14T00:44:40.410Z,29.73
2023-05-14T00:45:40.083Z,31.04
2023-05-14T00:46:40.234Z,30.19
2023-05-14T00:47:40.138Z,28.84
2023-05-14T00:48:40.140Z,28.62
2023-05-14T00:49:40.937Z,30.79
2023-05-14T00:50:40.143Z,27.79
2023-05-14T00:51:40.122Z,29.01
2023-05-14T00:52:40.148Z,28.12
2023-05-14T00:53:40.162Z,28.64
2023-05-14T00:54:40.171Z,27.82
2023-05-14T00:55:40.347Z,28.55
2023-05-14T00:56:40.161Z,26.38
2023-05-14T00:57:40.197Z,26.78
2023-05-14T00:58:40.175Z,28.21
2023-05-14T00:59:40.188Z,26.31
2023-05-14T01:00:40.429Z,26.76
2023-05-14T01:01:40.196Z,28.58
2023-05-14T01:02:40.245Z,27.92
2023-05-14T01:03:41.282Z,28.14
2023-05-14T01:04:40.184Z,28.51
2023-05-14T01:05:40.362Z,27.98
2023-05-14T01:06:40.145Z,27.33
2023-05-14T01:07:40.158Z,28.60
2023-05-14T01:08:40.166Z,28.02
2023-05-14T01:09:40.872Z,29.17
2023-05-14T01:10:40.136Z,29.81
2023-05-14T01:11:40.118Z,28.35
2023-05-14T01:12:40.151Z,28.49
2023-05-14T01:13:40.124Z,31.32
2023-05-14T01:14:40.083Z,26.83
2023-05-14T01:15:40.398Z,28.16
2023-05-14T01:16:40.119Z,28.21
2023-05-14T01:17:40.064Z,28.39
2023-05-14T01:18:40.116Z,29.81
2023-05-14T01:19:40.097Z,30.01
2023-05-14T01:20:40.046Z,29.37
2023-05-14T01:21:40.027Z,29.32
2023-05-14T01:22:40.054Z,30.44
2023-05-14T01:23:40.016Z,28.70
2023-05-14T01:24:40.023Z,28.17
2023-05-14T01:25:40.003Z,30.57
2023-05-14T01:26:39.988Z,28.62
2023-05-14T01:27:39.991Z,30.16
2023-05-14T01:28:40.019Z,28.77
2023-05-14T01:29:39.970Z,27.18
2023-05-14T01:30:40.397Z,30.21
2023-05-14T01:31:39.987Z,28.53
2023-05-14T01:32:39.980Z,27.79
2023-05-14T01:33:39.954Z,25.70
2023-05-14T01:34:39.939Z,27.99
2023-05-14T01:35:40.377Z,29.39
2023-05-14T01:36:39.942Z,27.97
2023-05-14T01:37:39.900Z,30.12
2023-05-14T01:38:39.906Z,27.15
2023-05-14T01:39:39.924Z,27.08
2023-05-14T01:40:40.388Z,29.59
2023-05-14T01:41:39.939Z,27.60
2023-05-14T01:42:39.899Z,30.74
2023-05-14T01:43:39.877Z,30.22
2023-05-14T01:44:39.886Z,29.33
2023-05-14T01:45:39.883Z,29.42
2023-05-14T01:46:39.955Z,29.33
2023-05-14T01:47:39.868Z,26.90
2023-05-14T01:48:39.807Z,29.17
2023-05-14T01:49:39.842Z,28.67
2023-05-14T01:50:39.826Z,31.31
2023-05-14T01:51:39.831Z,29.62
2023-05-14T01:52:39.861Z,28.59
2023-05-14T01:53:39.832Z,30.29
2023-05-14T01:54:39.849Z,31.47
2023-05-14T01:55:39.878Z,29.54
2023-05-14T01:56:40.152Z,31.20
2023-05-14T01:57:39.867Z,29.53
2023-05-14T01:58:39.914Z,30.48
2023-05-14T01:59:39.918Z,28.12
2023-05-14T02:00:40.415Z,33.12
2023-05-14T02:01:39.978Z,30.56
2023-05-14T02:02:40.003Z,27.77
2023-05-14T02:03:39.985Z,31.27
2023-05-14T02:04:39.940Z,29.90
2023-05-14T02:05:40.003Z,30.20
2023-05-14T02:06:40.987Z,30.38
2023-05-14T02:07:39.981Z,28.41
2023-05-14T02:08:39.938Z,30.05
2023-05-14T02:09:39.961Z,28.27
2023-05-14T02:10:40.420Z,28.49
2023-05-14T02:11:39.961Z,29.83
2023-05-14T02:12:39.969Z,30.85
2023-05-14T02:13:39.909Z,30.76
2023-05-14T02:14:39.935Z,30.75
2023-05-14T02:15:41.964Z,31.89
2023-05-14T02:16:39.911Z,32.04
2023-05-14T02:17:39.929Z,27.47
2023-05-14T02:18:40.406Z,31.64
2023-05-14T02:19:40.402Z,30.67
2023-05-14T02:20:40.850Z,30.92
2023-05-14T02:21:39.861Z,30.94
2023-05-14T02:22:39.921Z,30.52
2023-05-14T02:23:41.908Z,29.59
2023-05-14T02:24:39.929Z,30.13
2023-05-14T02:25:40.421Z,29.55
2023-05-14T02:26:39.940Z,30.52
2023-05-14T02:27:39.976Z,31.30
2023-05-14T02:28:40.053Z,30.52
2023-05-14T02:29:40.020Z,29.57
2023-05-14T02:30:40.420Z,27.56
2023-05-14T02:31:40.992Z,27.53
2023-05-14T02:32:40.101Z,27.40
2023-05-14T02:33:40.129Z,27.37
2023-05-14T02:34:40.096Z,30.67
2023-05-14T02:35:40.425Z,30.66
2023-05-14T02:36:40.179Z,28.74
2023-05-14T02:37:40.158Z,29.07
2023-05-14T02:38:40.197Z,29.50
2023-05-14T02:39:40.199Z,28.55
2023-05-14T02:40:40.197Z,29.35
2023-05-14T02:41:40.218Z,28.87
2023-05-14T02:42:40.268Z,28.68
2023-05-14T02:43:40.302Z,29.65
2023-05-14T02:44:40.343Z,30.87
2023-05-14T02:45:40.428Z,30.08
2023-05-14T02:46:40.424Z,29.56
2023-05-14T02:47:40.400Z,30.20
2023-05-14T02:48:40.405Z,28.21
2023-05-14T02:49:40.417Z,31.50
2023-05-14T02:50:40.889Z,27.27
2023-05-14T02:51:40.458Z,27.41
2023-05-14T02:52:40.478Z,29.64
2023-05-14T02:53:40.497Z,29.87
2023-05-14T02:54:40.522Z,30.26
2023-05-14T02:55:40.521Z,28.90
2023-05-14T02:56:40.611Z,29.31
2023-05-14T02:57:40.579Z,26.83
2023-05-14T02:58:40.579Z,28.51
2023-05-14T02:59:42.431Z,28.09
2023-05-14T03:00:40.687Z,31.13
2023-05-14T03:01:40.634Z,28.45
2023-05-14T03:02:40.737Z,29.00
2023-05-14T03:03:40.651Z,29.16
2023-05-14T03:04:40.679Z,28.64
2023-05-14T03:05:40.694Z,27.21
2023-05-14T03:06:40.718Z,30.74
2023-05-14T03:07:40.743Z,29.23
2023-05-14T03:08:40.760Z,27.57
2023-05-14T03:09:40.805Z,27.38
2023-05-14T03:10:40.810Z,27.81
2023-05-14T03:11:40.841Z,29.47
2023-05-14T03:12:40.860Z,29.40
2023-05-14T03:13:40.865Z,28.83
2023-05-14T03:14:40.894Z,27.87
2023-05-14T03:15:40.908Z,31.27
2023-05-14T03:16:40.964Z,30.80
2023-05-14T03:17:40.951Z,31.90
2023-05-14T03:18:40.978Z,25.80
2023-05-14T03:19:40.998Z,28.83
2023-05-14T03:20:41.414Z,27.55
2023-05-14T03:21:41.059Z,27.95
2023-05-14T03:22:41.057Z,30.01
2023-05-14T03:23:41.108Z,30.01
2023-05-14T03:24:41.124Z,30.81
2023-05-14T03:25:41.409Z,31.21
2023-05-14T03:26:41.109Z,28.11
2023-05-14T03:27:41.199Z,29.20
2023-05-14T03:28:41.164Z,29.26
2023-05-14T03:29:41.212Z,30.03
2023-05-14T03:30:41.239Z,27.38
2023-05-14T03:31:41.258Z,28.64
2023-05-14T03:32:41.315Z,29.71
2023-05-14T03:33:41.302Z,28.60
2023-05-14T03:34:41.346Z,31.95
2023-05-14T03:35:41.305Z,27.66
2023-05-14T03:36:41.343Z,32.27
2023-05-14T03:37:41.380Z,27.86
2023-05-14T03:38:41.404Z,27.75
2023-05-14T03:39:41.419Z,29.03
2023-05-14T03:40:41.416Z,28.64
2023-05-14T03:41:41.472Z,26.74
2023-05-14T03:42:41.469Z,26.76
2023-05-14T03:43:41.525Z,28.78
2023-05-14T03:44:41.586Z,30.26
2023-05-14T03:45:41.592Z,29.92
2023-05-14T03:46:41.615Z,28.53
2023-05-14T03:47:41.670Z,29.12
2023-05-14T03:48:41.663Z,28.93
2023-05-14T03:49:41.675Z,29.28
2023-05-14T03:50:41.691Z,29.05
2023-05-14T03:51:41.705Z,28.42
2023-05-14T03:52:41.796Z,25.34
2023-05-14T03:53:41.766Z,29.18
2023-05-14T03:54:41.800Z,29.53
2023-05-14T03:55:41.946Z,30.74
2023-05-14T03:56:41.830Z,29.32
2023-05-14T03:57:41.843Z,29.52
2023-05-14T03:58:41.851Z,27.24
2023-05-14T03:59:41.918Z,25.81
2023-05-14T04:00:41.948Z,28.35
2023-05-14T04:01:41.950Z,27.32
2023-05-14T04:02:42.069Z,28.53
2023-05-14T04:03:42.131Z,28.61
2023-05-14T04:04:42.072Z,27.09
2023-05-14T04:05:42.446Z,29.05
2023-05-14T04:06:42.089Z,27.62
2023-05-14T04:07:42.100Z,28.08
2023-05-14T04:08:42.149Z,29.83
2023-05-14T04:09:42.142Z,27.97
2023-05-14T04:10:42.179Z,29.04
2023-05-14T04:11:42.494Z,26.57
2023-05-14T04:12:42.198Z,31.30
2023-05-14T04:13:42.239Z,25.11
2023-05-14T04:14:42.245Z,28.46
2023-05-14T04:15:42.301Z,26.64
2023-05-14T04:16:42.550Z,29.07
2023-05-14T04:17:42.376Z,25.85
2023-05-14T04:18:42.391Z,29.64
2023-05-14T04:19:42.389Z,28.30
2023-05-14T04:20:42.438Z,26.07
2023-05-14T04:21:42.429Z,30.64
2023-05-14T04:22:42.453Z,32.01
2023-05-14T04:23:42.473Z,30.68
2023-05-14T04:24:42.498Z,29.99
2023-05-14T04:25:42.498Z,29.52
2023-05-14T04:26:42.940Z,30.72
2023-05-14T04:27:42.546Z,33.49
2023-05-14T04:28:42.588Z,28.97
2023-05-14T04:29:42.580Z,28.80
2023-05-14T04:30:42.619Z,31.76
2023-05-14T04:31:42.683Z,32.91
2023-05-14T04:32:42.707Z,29.63
2023-05-14T04:33:42.685Z,29.69
2023-05-14T04:34:42.724Z,31.32
2023-05-14T04:35:42.785Z,29.96
2023-05-14T04:36:42.805Z,28.62
2023-05-14T04:37:42.822Z,32.39
2023-05-14T04:38:42.854Z,29.37
2023-05-14T04:39:42.899Z,27.78
2023-05-14T04:40:42.908Z,33.77
2023-05-14T04:41:42.958Z,29.86
2023-05-14T04:42:43.004Z,31.00
2023-05-14T04:43:43.009Z,29.48
2023-05-14T04:44:43.043Z,31.68
2023-05-14T04:45:43.077Z,31.04
2023-05-14T04:46:43.084Z,32.93
2023-05-14T04:47:43.125Z,32.57
2023-05-14T04:48:43.119Z,29.13
2023-05-14T04:49:43.163Z,29.09
2023-05-14T04:50:43.191Z,28.91
2023-05-14T04:51:43.451Z,30.84
2023-05-14T04:52:43.254Z,28.67
2023-05-14T04:53:43.302Z,31.61
2023-05-14T04:54:43.337Z,27.45
2023-05-14T04:55:43.343Z,30.51
2023-05-14T04:56:43.417Z,31.19
2023-05-14T04:57:43.421Z,31.80
2023-05-14T04:58:43.473Z,29.30
2023-05-14T04:59:43.516Z,32.39
2023-05-14T05:00:43.553Z,29.35
2023-05-14T05:01:43.642Z,30.87
2023-05-14T05:02:43.694Z,30.57
2023-05-14T05:03:43.684Z,28.89
2023-05-14T05:04:43.650Z,29.10
2023-05-14T05:05:43.688Z,28.55
2023-05-14T05:06:43.750Z,31.25
2023-05-14T05:07:43.769Z,31.14
2023-05-14T05:08:43.781Z,29.83
2023-05-14T05:09:43.821Z,28.62
2023-05-14T05:10:43.880Z,29.15
2023-05-14T05:11:43.891Z,29.46
2023-05-14T05:12:43.907Z,33.13
2023-05-14T05:13:43.975Z,31.96
2023-05-14T05:14:43.999Z,29.04
2023-05-14T05:15:44.069Z,30.75
2023-05-14T05:16:44.110Z,30.50
2023-05-14T05:17:44.132Z,31.72
2023-05-14T05:18:44.175Z,31.85
2023-05-14T05:19:44.739Z,28.18
2023-05-14T05:20:44.188Z,32.87
2023-05-14T05:21:44.480Z,27.30
2023-05-14T05:22:44.292Z,31.74
2023-05-14T05:23:44.273Z,31.35
2023-05-14T05:24:44.326Z,30.02
2023-05-14T05:25:44.324Z,30.13
2023-05-14T05:26:44.995Z,30.20
2023-05-14T05:27:44.401Z,31.17
2023-05-14T05:28:44.432Z,29.90
2023-05-14T05:29:44.453Z,29.17
2023-05-14T05:30:44.529Z,31.61
2023-05-14T05:31:44.677Z,31.47
2023-05-14T05:32:44.621Z,28.64
2023-05-14T05:33:44.656Z,27.73
2023-05-14T05:34:44.656Z,26.94
2023-05-14T05:35:44.702Z,30.58
2023-05-14T05:36:44.974Z,29.61
2023-05-14T05:37:44.788Z,28.21
2023-05-14T05:38:44.793Z,33.67
2023-05-14T05:39:44.818Z,32.57
2023-05-14T05:40:44.934Z,29.70
2023-05-14T05:41:44.987Z,27.36
2023-05-14T05:42:44.991Z,32.42
2023-05-14T05:43:44.987Z,32.01
2023-05-14T05:44:45.041Z,29.16
2023-05-14T05:45:45.070Z,27.96
2023-05-14T05:46:45.573Z,30.18
2023-05-14T05:47:45.192Z,31.24
2023-05-14T05:48:45.180Z,28.38
2023-05-14T05:49:45.241Z,29.91
2023-05-14T05:50:45.216Z,28.99
2023-05-14T05:51:45.490Z,31.21
2023-05-14T05:52:45.297Z,27.71
2023-05-14T05:53:45.311Z,31.11
2023-05-14T05:54:45.349Z,29.40
2023-05-14T05:55:45.390Z,31.75
2023-05-14T05:56:45.453Z,30.12
2023-05-14T05:57:45.471Z,30.89
2023-05-14T05:58:45.494Z,26.92
2023-05-14T05:59:45.526Z,27.81
2023-05-14T06:00:45.551Z,30.53
2023-05-14T06:01:46.063Z,28.05
2023-05-14T06:02:45.661Z,26.58
2023-05-14T06:03:47.742Z,30.84
2023-05-14T06:04:45.697Z,32.62
2023-05-14T06:05:45.682Z,30.16
2023-05-14T06:06:45.687Z,33.93
2023-05-14T06:07:45.638Z,31.68
2023-05-14T06:08:45.615Z,26.10
2023-05-14T06:09:45.618Z,30.58
2023-05-14T06:10:47.557Z,26.64
2023-05-14T06:11:46.005Z,26.96
2023-05-14T06:12:45.594Z,27.33
2023-05-14T06:13:45.584Z,28.85
2023-05-14T06:14:45.584Z,29.41
2023-05-14T06:15:45.576Z,31.81
2023-05-14T06:16:45.583Z,31.80
2023-05-14T06:17:45.614Z,28.09
2023-05-14T06:18:45.643Z,32.33
2023-05-14T06:19:45.633Z,33.21
2023-05-14T06:20:45.768Z,29.91
2023-05-14T06:21:45.704Z,30.48
2023-05-14T06:22:45.751Z,28.67
2023-05-14T06:23:45.760Z,32.16
2023-05-14T06:24:45.821Z,27.96
2023-05-14T06:25:45.861Z,30.05
2023-05-14T06:26:45.909Z,33.06
2023-05-14T06:27:45.982Z,28.50
2023-05-14T06:28:46.007Z,26.94
2023-05-14T06:29:46.032Z,28.29
2023-05-14T06:30:46.035Z,32.11
2023-05-14T06:31:46.168Z,30.06
2023-05-14T06:32:46.232Z,29.25
2023-05-14T06:33:46.146Z,29.73
2023-05-14T06:34:46.168Z,32.26
2023-05-14T06:35:46.214Z,29.93
2023-05-14T06:36:46.267Z,31.50
2023-05-14T06:37:46.256Z,30.45
2023-05-14T06:38:46.299Z,27.84
2023-05-14T06:39:46.336Z,27.50
2023-05-14T06:40:46.365Z,29.18
2023-05-14T06:41:46.424Z,30.51
2023-05-14T06:42:46.457Z,28.54
2023-05-14T06:43:46.520Z,32.19
2023-05-14T06:44:46.512Z,29.82
2023-05-14T06:45:46.562Z,31.54
2023-05-14T06:46:46.597Z,29.99
2023-05-14T06:47:46.655Z,28.07
2023-05-14T06:48:46.721Z,31.54
2023-05-14T06:49:46.698Z,30.93
2023-05-14T06:50:46.737Z,27.09
2023-05-14T06:51:46.778Z,29.73
2023-05-14T06:52:46.774Z,30.42
2023-05-14T06:53:46.846Z,31.12
2023-05-14T06:54:46.859Z,28.01
2023-05-14T06:55:46.858Z,28.30
2023-05-14T06:56:46.938Z,31.76
2023-05-14T06:57:46.951Z,30.90
2023-05-14T06:58:46.987Z,29.92
2023-05-14T06:59:47.006Z,30.29
2023-05-14T07:00:47.061Z,32.23
2023-05-14T07:01:47.072Z,29.73
2023-05-14T07:02:47.144Z,33.16
2023-05-14T07:03:47.183Z,29.93
2023-05-14T07:04:47.183Z,30.58
2023-05-14T07:05:47.214Z,31.62
2023-05-14T07:06:47.240Z,31.68
2023-05-14T07:07:47.293Z,30.39
2023-05-14T07:08:47.326Z,28.15
2023-05-14T07:09:47.369Z,32.82
2023-05-14T07:10:47.397Z,31.11
2023-05-14T07:11:47.430Z,33.38
2023-05-14T07:12:47.464Z,30.93
2023-05-14T07:13:47.479Z,30.36
2023-05-14T07:14:47.515Z,29.66
2023-05-14T07:15:47.594Z,30.77
2023-05-14T07:16:47.634Z,30.96
2023-05-14T07:17:47.652Z,30.06
2023-05-14T07:18:47.669Z,30.60
2023-05-14T07:19:47.693Z,33.06
2023-05-14T07:20:47.690Z,33.56
2023-05-14T07:21:47.746Z,35.03
2023-05-14T07:22:47.773Z,31.13
2023-05-14T07:23:47.784Z,30.62
2023-05-14T07:24:47.789Z,31.94
2023-05-14T07:25:47.827Z,34.07
2023-05-14T07:26:47.872Z,32.79
2023-05-14T07:27:47.909Z,32.31
2023-05-14T07:28:47.961Z,31.99
2023-05-14T07:29:47.957Z,31.56
2023-05-14T07:30:47.958Z,31.66
2023-05-14T07:31:48.161Z,33.17
2023-05-14T07:32:48.104Z,33.38
2023-05-14T07:33:48.088Z,32.82
2023-05-14T07:34:48.179Z,34.00
2023-05-14T07:35:48.174Z,33.33
2023-05-14T07:36:48.179Z,34.64
2023-05-14T07:37:48.222Z,32.91
2023-05-14T07:38:48.217Z,34.48
2023-05-14T07:39:48.276Z,34.26
2023-05-14T07:40:48.414Z,33.33
2023-05-14T07:41:48.356Z,29.94
2023-05-14T07:42:48.359Z,32.63
2023-05-14T07:43:48.407Z,33.08
2023-05-14T07:44:48.417Z,30.46
2023-05-14T07:45:48.451Z,32.15
2023-05-14T07:46:48.504Z,32.94
2023-05-14T07:47:48.688Z,34.19
2023-05-14T07:48:48.543Z,30.40
2023-05-14T07:49:48.553Z,31.67
2023-05-14T07:50:48.624Z,32.93
2023-05-14T07:51:48.621Z,34.65
2023-05-14T07:52:48.700Z,32.08
2023-05-14T07:53:48.740Z,33.40
2023-05-14T07:54:50.578Z,32.17
2023-05-14T07:55:48.747Z,31.99
2023-05-14T07:56:48.781Z,32.22
2023-05-14T07:57:48.761Z,33.26
2023-05-14T07:58:48.825Z,32.80
2023-05-14T07:59:48.854Z,33.65
2023-05-14T08:00:48.873Z,30.89
2023-05-14T08:01:48.908Z,31.39
2023-05-14T08:02:49.188Z,31.72
2023-05-14T08:03:49.018Z,33.89
2023-05-14T08:04:48.934Z,35.26
2023-05-14T08:05:48.986Z,32.34
2023-05-14T08:06:49.013Z,35.05
2023-05-14T08:07:49.051Z,34.36
2023-05-14T08:08:49.073Z,33.73
2023-05-14T08:09:49.082Z,31.66
2023-05-14T08:10:49.238Z,35.27
2023-05-14T08:11:49.188Z,32.21
2023-05-14T08:12:49.221Z,33.74
2023-05-14T08:13:49.239Z,34.50
2023-05-14T08:14:49.207Z,34.18
2023-05-14T08:15:49.285Z,32.68
2023-05-14T08:16:49.308Z,35.03
2023-05-14T08:17:49.373Z,34.15
2023-05-14T08:18:49.410Z,32.87
2023-05-14T08:19:49.332Z,34.29
2023-05-14T08:20:49.382Z,33.21
2023-05-14T08:21:49.427Z,33.70
2023-05-14T08:22:49.452Z,36.19
2023-05-14T08:23:49.462Z,35.81
2023-05-14T08:24:49.490Z,33.26
2023-05-14T08:25:49.487Z,35.08
2023-05-14T08:26:49.528Z,34.17
2023-05-14T08:27:49.513Z,33.14
2023-05-14T08:28:49.540Z,35.27
2023-05-14T08:29:49.599Z,34.70
2023-05-14T08:30:49.607Z,37.67
2023-05-14T08:31:49.644Z,35.32
2023-05-14T08:32:49.681Z,34.69
2023-05-14T08:33:49.660Z,33.65
2023-05-14T08:34:49.720Z,34.04
2023-05-14T08:35:49.697Z,38.63
2023-05-14T08:36:49.751Z,37.21
2023-05-14T08:37:49.747Z,34.85
2023-05-14T08:38:49.782Z,37.34
2023-05-14T08:39:49.815Z,38.20
2023-05-14T08:40:49.788Z,37.39
2023-05-14T08:41:50.077Z,36.05
2023-05-14T08:42:49.882Z,35.99
2023-05-14T08:43:49.880Z,38.93
2023-05-14T08:44:49.967Z,37.63
2023-05-14T08:45:49.891Z,40.73
2023-05-14T08:46:49.917Z,37.82
2023-05-14T08:47:50.127Z,38.13
2023-05-14T08:48:50.011Z,38.67
2023-05-14T08:49:49.975Z,41.25
2023-05-14T08:50:49.988Z,41.74
2023-05-14T08:51:50.048Z,41.26
2023-05-14T08:52:50.051Z,41.23
2023-05-14T08:53:50.064Z,39.50
2023-05-14T08:54:50.088Z,41.12
2023-05-14T08:55:50.076Z,39.49
2023-05-14T08:56:51.802Z,42.78
2023-05-14T08:57:50.566Z,40.71
2023-05-14T08:58:50.129Z,43.27
2023-05-14T08:59:50.155Z,40.88
2023-05-14T09:00:50.184Z,40.83
2023-05-14T09:01:50.220Z,42.97
2023-05-14T09:02:50.667Z,46.68
2023-05-14T09:03:50.304Z,41.78
2023-05-14T09:04:50.203Z,43.30
2023-05-14T09:05:50.236Z,43.46
2023-05-14T09:06:50.213Z,44.57
2023-05-14T09:07:50.578Z,44.64
2023-05-14T09:08:50.259Z,46.57
2023-05-14T09:09:50.273Z,47.16
2023-05-14T09:10:50.302Z,43.26
2023-05-14T09:11:50.322Z,44.87
2023-05-14T09:12:50.342Z,46.84
2023-05-14T09:13:50.316Z,45.55
2023-05-14T09:14:50.376Z,45.80
2023-05-14T09:15:50.460Z,49.86
2023-05-14T09:16:50.484Z,46.53
2023-05-14T09:17:50.581Z,47.46
2023-05-14T09:18:50.412Z,47.51
2023-05-14T09:19:50.409Z,48.81
2023-05-14T09:20:50.407Z,47.61
2023-05-14T09:21:50.411Z,46.81
2023-05-14T09:22:50.445Z,47.36
2023-05-14T09:23:50.448Z,48.33
2023-05-14T09:24:50.453Z,46.76
2023-05-14T09:25:50.489Z,44.39
2023-05-14T09:26:50.460Z,48.15
2023-05-14T09:27:50.473Z,48.55
2023-05-14T09:28:50.506Z,46.82
2023-05-14T09:29:50.515Z,50.27
2023-05-14T09:30:50.491Z,49.42
2023-05-14T09:31:50.638Z,47.78
2023-05-14T09:32:50.689Z,47.31
2023-05-14T09:33:50.511Z,48.41
2023-05-14T09:34:50.525Z,49.62
2023-05-14T09:35:50.531Z,47.46
2023-05-14T09:36:50.569Z,47.02
2023-05-14T09:37:50.608Z,46.69
2023-05-14T09:38:50.552Z,50.53
2023-05-14T09:39:50.553Z,48.09
2023-05-14T09:40:50.590Z,51.89
2023-05-14T09:41:50.594Z,48.61
2023-05-14T09:42:51.096Z,46.03
2023-05-14T09:43:50.622Z,47.47
2023-05-14T09:44:50.641Z,49.07
2023-05-14T09:45:50.644Z,47.65
2023-05-14T09:46:50.673Z,49.70
2023-05-14T09:47:50.735Z,48.00
2023-05-14T09:48:50.656Z,47.64
2023-05-14T09:49:50.691Z,47.73
2023-05-14T09:50:50.658Z,46.07
2023-05-14T09:51:51.573Z,53.05
2023-05-14T09:52:50.695Z,50.67
2023-05-14T09:53:50.685Z,50.57
2023-05-14T09:54:50.706Z,48.36
2023-05-14T09:55:50.697Z,49.84
2023-05-14T09:56:50.729Z,50.66
2023-05-14T09:57:50.725Z,46.88
2023-05-14T09:58:50.719Z,52.23
2023-05-14T09:59:50.718Z,50.57
2023-05-14T10:00:50.793Z,47.65
2023-05-14T10:01:50.769Z,49.36
2023-05-14T10:02:51.130Z,48.42
2023-05-14T10:03:50.795Z,50.11
2023-05-14T10:04:50.920Z,49.42
2023-05-14T10:05:50.801Z,48.07
2023-05-14T10:06:50.793Z,47.61
2023-05-14T10:07:50.829Z,50.34
2023-05-14T10:08:50.813Z,51.13
2023-05-14T10:09:50.820Z,48.20
2023-05-14T10:10:50.864Z,50.45
2023-05-14T10:11:50.829Z,50.58
2023-05-14T10:12:50.896Z,47.87
2023-05-14T10:13:50.903Z,51.15
2023-05-14T10:14:50.873Z,49.94
2023-05-14T10:15:50.885Z,50.40
2023-05-14T10:16:51.000Z,51.09
2023-05-14T10:17:51.096Z,47.72
2023-05-14T10:18:51.020Z,50.38
2023-05-14T10:19:50.976Z,47.27
2023-05-14T10:20:50.957Z,50.49
2023-05-14T10:21:50.991Z,51.58
2023-05-14T10:22:50.989Z,49.49
2023-05-14T10:23:50.965Z,49.93
2023-05-14T10:24:51.009Z,50.64
2023-05-14T10:25:51.004Z,48.69
2023-05-14T10:26:51.025Z,47.90
2023-05-14T10:27:51.044Z,50.63
2023-05-14T10:28:51.057Z,45.58
2023-05-14T10:29:51.076Z,50.90
2023-05-14T10:30:51.115Z,47.26
2023-05-14T10:31:51.073Z,49.21
2023-05-14T10:32:51.164Z,51.42
2023-05-14T10:33:51.115Z,50.74
2023-05-14T10:34:51.112Z,49.02
2023-05-14T10:35:51.123Z,49.91
2023-05-14T10:36:51.110Z,49.48
2023-05-14T10:37:51.609Z,48.95
2023-05-14T10:38:51.093Z,49.79
2023-05-14T10:39:51.137Z,49.39
2023-05-14T10:40:53.531Z,50.02
2023-05-14T10:41:51.127Z,52.08
2023-05-14T10:42:51.130Z,49.67
2023-05-14T10:43:51.123Z,50.02
2023-05-14T10:44:51.102Z,50.59
2023-05-14T10:45:51.091Z,48.77
2023-05-14T10:46:51.134Z,52.16
2023-05-14T10:47:51.116Z,51.64
2023-05-14T10:48:51.080Z,49.44
2023-05-14T10:49:51.060Z,48.09
2023-05-14T10:50:51.084Z,50.09
2023-05-14T10:51:51.044Z,49.16
2023-05-14T10:52:51.121Z,49.40
2023-05-14T10:53:51.024Z,46.09
2023-05-14T10:54:51.626Z,50.12
2023-05-14T10:55:51.023Z,49.13
2023-05-14T10:56:51.024Z,48.45
2023-05-14T10:57:51.033Z,46.04
2023-05-14T10:58:50.956Z,49.08
2023-05-14T10:59:50.993Z,48.47
2023-05-14T11:00:50.971Z,48.58
2023-05-14T11:01:51.015Z,47.20
2023-05-14T11:02:51.028Z,46.86
2023-05-14T11:03:51.003Z,45.15
2023-05-14T11:04:50.927Z,46.38
2023-05-14T11:05:50.908Z,46.84
2023-05-14T11:06:50.923Z,44.47
2023-05-14T11:07:51.133Z,47.69
2023-05-14T11:08:50.910Z,45.13
2023-05-14T11:09:50.892Z,50.58
2023-05-14T11:10:50.922Z,44.77
2023-05-14T11:11:50.886Z,46.92
2023-05-14T11:12:50.906Z,45.45
2023-05-14T11:13:50.868Z,44.96
2023-05-14T11:14:50.875Z,45.09
2023-05-14T11:15:50.868Z,50.55
2023-05-14T11:16:50.895Z,45.36
2023-05-14T11:17:51.197Z,44.51
2023-05-14T11:18:50.850Z,42.65
2023-05-14T11:19:51.303Z,46.44
2023-05-14T11:20:50.835Z,47.66
2023-05-14T11:21:50.846Z,45.55
2023-05-14T11:22:51.137Z,42.37
2023-05-14T11:23:50.797Z,44.66
2023-05-14T11:24:50.785Z,45.53
2023-05-14T11:25:50.822Z,43.41
2023-05-14T11:26:50.758Z,44.51
2023-05-14T11:27:50.767Z,44.20
2023-05-14T11:28:50.742Z,44.40
2023-05-14T11:29:50.745Z,44.70
2023-05-14T11:30:50.715Z,42.47
2023-05-14T11:31:50.773Z,42.01
2023-05-14T11:32:50.900Z,41.77
2023-05-14T11:33:50.707Z,45.45
2023-05-14T11:34:50.721Z,41.88
2023-05-14T11:35:50.666Z,43.64
2023-05-14T11:36:50.694Z,41.91
2023-05-14T11:37:50.657Z,43.97
2023-05-14T11:38:50.657Z,41.09
2023-05-14T11:39:50.659Z,45.77
2023-05-14T11:40:50.657Z,44.39
2023-05-14T11:41:50.646Z,45.32
2023-05-14T11:42:50.633Z,42.30
2023-05-14T11:43:50.598Z,45.56
2023-05-14T11:44:50.656Z,42.11
2023-05-14T11:45:50.626Z,41.58
2023-05-14T11:46:50.619Z,41.68
2023-05-14T11:47:50.698Z,41.56
2023-05-14T11:48:50.622Z,40.99
2023-05-14T11:49:50.585Z,40.59
2023-05-14T11:50:50.597Z,41.97
2023-05-14T11:51:50.596Z,40.92
2023-05-14T11:52:50.580Z,43.36
2023-05-14T11:53:50.574Z,39.80
2023-05-14T11:54:50.537Z,42.30
2023-05-14T11:55:50.562Z,39.61
2023-05-14T11:56:50.523Z,40.92
2023-05-14T11:57:50.532Z,43.18
2023-05-14T11:58:50.543Z,40.48
2023-05-14T11:59:50.489Z,43.13
2023-05-14T12:00:50.481Z,41.72
2023-05-14T12:01:50.853Z,42.24
2023-05-14T12:02:50.760Z,40.76
2023-05-14T12:03:50.525Z,39.68
2023-05-14T12:04:50.550Z,40.21
2023-05-14T12:05:50.452Z,44.21
2023-05-14T12:06:50.447Z,42.14
2023-05-14T12:07:50.652Z,42.63
2023-05-14T12:08:50.472Z,37.29
2023-05-14T12:09:50.486Z,38.19
2023-05-14T12:10:50.419Z,38.86
2023-05-14T12:11:50.435Z,39.05
2023-05-14T12:12:50.634Z,39.34
2023-05-14T12:13:50.402Z,39.87
2023-05-14T12:14:50.509Z,40.53
2023-05-14T12:15:50.403Z,42.38
2023-05-14T12:16:50.400Z,40.73
2023-05-14T12:17:50.701Z,38.95
2023-05-14T12:18:50.439Z,41.32
2023-05-14T12:19:50.352Z,39.68
2023-05-14T12:20:50.343Z,39.05
2023-05-14T12:21:50.336Z,38.78
2023-05-14T12:22:50.339Z,41.32
2023-05-14T12:23:50.340Z,40.00
2023-05-14T12:24:50.320Z,39.26
2023-05-14T12:25:50.291Z,38.37
2023-05-14T12:26:50.280Z,38.18
2023-05-14T12:27:51.157Z,40.01
2023-05-14T12:28:50.284Z,41.03
2023-05-14T12:29:50.290Z,39.43
2023-05-14T12:30:50.277Z,36.74
2023-05-14T12:31:50.329Z,39.03
2023-05-14T12:32:50.696Z,42.47
2023-05-14T12:33:50.279Z,39.30
2023-05-14T12:34:50.243Z,39.59
2023-05-14T12:35:50.250Z,38.89
2023-05-14T12:36:50.237Z,37.82
2023-05-14T12:37:50.249Z,41.02
2023-05-14T12:38:50.649Z,38.93
2023-05-14T12:39:50.177Z,40.39
2023-05-14T12:40:50.188Z,39.12
2023-05-14T12:41:50.190Z,37.77
2023-05-14T12:42:50.172Z,38.88
2023-05-14T12:43:50.191Z,38.51
2023-05-14T12:44:50.186Z,35.94
2023-05-14T12:45:50.153Z,38.26
2023-05-14T12:46:50.207Z,38.71
2023-05-14T12:47:51.273Z,38.14
2023-05-14T12:48:53.237Z,37.85
2023-05-14T12:49:50.144Z,38.00
2023-05-14T12:50:50.113Z,37.47
2023-05-14T12:51:51.273Z,37.25
2023-05-14T12:52:50.107Z,38.25